Time;durP1;ratioP1;P1;durP2;ratioP2;P2;SDS_P1;SDS_P2;PMS_P1;PMS_P2;Temp;Humidity;BMP_temperature;BMP_pressure;BME280_temperature;BME280_humidity;BME280_pressure;Samples;Min_cycle;Max_cycle;Signal;HPM_P1;HPM_P2
2022/12/24 00:01:12;;;;;;;9.30;9.00;;;11.30;99.90;;;;;;5126301;28;20264;-83
2022/12/24 00:03:40;;;;;;;9.47;9.17;;;11.40;99.90;;;;;;5126576;28;20740;-82
2022/12/24 00:06:10;;;;;;;9.33;9.03;;;11.30;99.90;;;;;;5126615;28;20216;-82
2022/12/24 00:08:37;;;;;;;9.60;9.30;;;11.30;99.90;;;;;;5130567;28;20331;-83
2022/12/24 00:11:05;;;;;;;9.63;9.33;;;11.30;99.90;;;;;;5140687;27;20315;-81
2022/12/24 00:13:33;;;;;;;9.40;9.10;;;11.30;99.90;;;;;;5140801;27;20225;-81
2022/12/24 00:16:01;;;;;;;9.63;9.33;;;11.30;99.90;;;;;;5140540;27;20261;-82
2022/12/24 00:18:31;;;;;;;9.60;9.30;;;11.30;99.90;;;;;;5123568;28;20303;-83
2022/12/24 00:20:58;;;;;;;9.60;9.30;;;11.30;99.90;;;;;;5123411;28;20250;-83
2022/12/24 00:23:26;;;;;;;9.77;9.47;;;11.20;99.90;;;;;;5131665;27;20239;-82
2022/12/24 00:25:54;;;;;;;9.70;9.40;;;11.20;99.90;;;;;;5129356;28;20275;-82
2022/12/24 00:28:23;;;;;;;9.50;9.20;;;11.20;99.90;;;;;;5129561;28;20233;-82
2022/12/24 00:30:50;;;;;;;9.70;9.40;;;11.20;99.90;;;;;;5126085;28;20689;-82
2022/12/24 00:33:18;;;;;;;9.80;9.50;;;11.20;99.90;;;;;;5127210;27;20239;-82
2022/12/24 00:35:52;;;;;;;9.60;9.30;;;11.20;99.90;;;;;;5127140;27;20233;-82
2022/12/24 00:38:19;;;;;;;9.37;9.07;;;11.20;99.90;;;;;;5126525;27;20285;-82
2022/12/24 00:40:47;;;;;;;9.63;9.33;;;11.20;99.90;;;;;;5125761;28;20294;-82
2022/12/24 00:43:15;;;;;;;9.70;9.40;;;11.20;99.90;;;;;;5136356;27;20217;-82
2022/12/24 00:45:42;;;;;;;9.90;9.60;;;11.20;99.90;;;;;;5132333;27;20232;-82
2022/12/24 00:48:10;;;;;;;9.53;9.23;;;11.20;99.90;;;;;;5127642;28;20251;-82
2022/12/24 00:50:38;;;;;;;9.33;9.03;;;11.20;99.90;;;;;;5127984;28;20256;-82
2022/12/24 00:53:07;;;;;;;9.57;9.27;;;11.20;99.90;;;;;;5126568;27;20274;-82
2022/12/24 00:55:34;;;;;;;9.70;9.40;;;11.10;99.90;;;;;;5126099;27;20315;-82
2022/12/24 00:58:02;;;;;;;9.70;9.40;;;11.10;99.90;;;;;;5126009;27;20232;-82
2022/12/24 01:00:30;;;;;;;9.70;9.40;;;11.10;99.90;;;;;;5125398;27;20300;-82
2022/12/24 01:02:57;;;;;;;9.50;9.20;;;11.10;99.90;;;;;;5124631;28;20228;-82
2022/12/24 01:05:24;;;;;;;9.67;9.37;;;11.10;99.90;;;;;;5124887;27;20255;-82
2022/12/24 01:07:52;;;;;;;10.00;9.70;;;11.10;99.90;;;;;;5124846;27;20232;-82
2022/12/24 01:10:22;;;;;;;10.00;9.70;;;11.10;99.90;;;;;;5124929;28;20232;-82
2022/12/24 01:12:49;;;;;;;9.67;9.37;;;11.10;99.90;;;;;;5124804;27;20232;-82
2022/12/24 01:15:17;;;;;;;9.60;9.30;;;11.00;99.90;;;;;;5125522;28;20296;-82
2022/12/24 01:17:45;;;;;;;9.50;9.20;;;11.00;99.90;;;;;;5125069;28;20292;-82
2022/12/24 01:20:16;;;;;;;9.60;9.30;;;10.90;99.90;;;;;;5124780;28;20240;-82
2022/12/24 01:22:44;;;;;;;9.70;9.40;;;10.90;99.90;;;;;;5124967;28;20240;-83
2022/12/24 01:25:12;;;;;;;9.70;9.40;;;10.90;99.90;;;;;;5123865;27;20240;-82
2022/12/24 01:27:41;;;;;;;9.90;9.60;;;10.90;99.90;;;;;;5124416;28;20238;-82
2022/12/24 01:30:14;;;;;;;9.90;9.60;;;10.90;99.90;;;;;;5124370;27;20236;-82
2022/12/24 01:32:42;;;;;;;9.77;9.47;;;10.80;99.90;;;;;;5126117;27;20262;-82
2022/12/24 01:35:19;;;;;;;9.67;9.37;;;10.70;99.90;;;;;;5126630;27;20272;-82
2022/12/24 01:37:47;;;;;;;9.60;9.30;;;10.70;99.90;;;;;;5126018;28;20228;-82
2022/12/24 01:45:49;;;;;;;9.93;9.63;;;10.70;99.90;;;;;;5129066;28;20208;-82
2022/12/24 01:48:37;;;;;;;9.67;9.37;;;10.70;99.90;;;;;;5126824;27;20301;-82
2022/12/24 01:51:13;;;;;;;9.57;9.27;;;10.70;99.90;;;;;;5125702;27;20286;-83
2022/12/24 01:53:45;;;;;;;9.90;9.60;;;10.60;99.90;;;;;;5125415;28;20252;-82
2022/12/24 01:56:14;;;;;;;9.90;9.60;;;10.60;99.90;;;;;;5124268;27;20290;-82
2022/12/24 01:58:49;;;;;;;9.77;9.47;;;10.60;99.90;;;;;;5124463;27;20221;-82
2022/12/24 02:01:17;;;;;;;9.80;9.50;;;10.60;99.90;;;;;;5124992;28;20297;-82
2022/12/24 02:03:45;;;;;;;9.80;9.50;;;10.60;99.90;;;;;;5125474;28;20296;-82
2022/12/24 02:06:15;;;;;;;9.90;9.60;;;10.60;99.90;;;;;;5125519;27;20239;-82
2022/12/24 02:08:43;;;;;;;9.60;9.30;;;10.60;99.90;;;;;;5124137;27;20231;-82
2022/12/24 02:11:14;;;;;;;9.63;9.33;;;10.60;99.90;;;;;;5123987;27;20322;-82
2022/12/24 02:13:47;;;;;;;9.63;9.33;;;10.60;99.90;;;;;;5124925;28;20937;-82
2022/12/24 02:16:38;;;;;;;10.00;9.70;;;10.60;99.90;;;;;;5124558;28;20324;-83
2022/12/24 02:19:30;;;;;;;9.70;9.40;;;10.60;99.90;;;;;;5125388;27;20225;-82
2022/12/24 02:22:05;;;;;;;9.80;9.50;;;10.50;99.90;;;;;;5123779;28;20350;-82
2022/12/24 02:25:06;;;;;;;9.77;9.47;;;10.60;99.90;;;;;;5123960;27;20236;-82
2022/12/24 02:27:55;;;;;;;9.83;9.53;;;10.60;99.90;;;;;;5124121;28;20263;-82
2022/12/24 02:30:29;;;;;;;9.73;9.43;;;10.60;99.90;;;;;;5124180;28;20229;-82
2022/12/24 02:33:13;;;;;;;9.93;9.63;;;10.50;99.90;;;;;;5123544;27;20312;-82
2022/12/24 02:35:50;;;;;;;9.70;9.40;;;10.50;99.90;;;;;;5123725;28;20228;-82
2022/12/24 02:38:25;;;;;;;9.67;9.37;;;10.50;99.90;;;;;;5123527;27;20228;-82
2022/12/24 02:40:57;;;;;;;9.70;9.40;;;10.50;99.90;;;;;;5122324;28;20234;-83
2022/12/24 02:43:31;;;;;;;9.80;9.50;;;10.50;99.90;;;;;;5124168;28;20259;-82
2022/12/24 02:46:05;;;;;;;9.57;9.27;;;10.50;99.90;;;;;;5122956;27;20236;-82
2022/12/24 02:48:34;;;;;;;9.83;9.53;;;10.50;99.90;;;;;;5123540;28;20225;-82
2022/12/24 02:51:08;;;;;;;9.70;9.40;;;10.50;99.90;;;;;;5122441;27;20233;-83
2022/12/24 02:53:38;;;;;;;10.00;9.70;;;10.50;99.90;;;;;;5122470;27;20266;-82
2022/12/24 02:56:30;;;;;;;9.90;9.60;;;10.50;99.90;;;;;;5121515;27;20357;-82
2022/12/24 02:59:40;;;;;;;9.90;9.60;;;10.40;99.90;;;;;;5122434;27;20225;-82
2022/12/24 03:02:24;;;;;;;9.80;9.50;;;10.40;99.90;;;;;;5113679;28;20236;-82
2022/12/24 03:05:00;;;;;;;9.63;9.33;;;10.30;99.90;;;;;;5129909;28;20229;-82
2022/12/24 03:07:33;;;;;;;9.50;9.20;;;10.30;99.90;;;;;;5134041;28;20251;-82
2022/12/24 03:10:19;;;;;;;9.60;9.30;;;10.20;99.90;;;;;;5127993;28;20240;-82
2022/12/24 03:12:51;;;;;;;9.50;9.20;;;10.20;99.90;;;;;;5129632;27;20309;-82
2022/12/24 03:15:22;;;;;;;9.60;9.30;;;10.10;99.90;;;;;;5128931;28;20233;-82
2022/12/24 03:17:57;;;;;;;9.80;9.50;;;10.10;99.90;;;;;;5127733;27;20264;-82
2022/12/24 03:20:33;;;;;;;9.50;9.20;;;10.10;99.90;;;;;;5126435;27;20228;-82
2022/12/24 03:23:01;;;;;;;9.57;9.27;;;10.10;99.90;;;;;;5126323;28;20228;-82
2022/12/24 03:25:29;;;;;;;9.50;9.20;;;10.10;99.90;;;;;;5126473;28;20237;-82
2022/12/24 03:27:57;;;;;;;9.40;9.10;;;10.00;99.90;;;;;;5125891;28;21034;-82
2022/12/24 03:30:27;;;;;;;9.40;9.10;;;9.90;99.90;;;;;;5126532;27;20247;-82
2022/12/24 03:32:56;;;;;;;9.20;8.90;;;9.80;99.90;;;;;;5126151;27;20293;-82
2022/12/24 03:35:23;;;;;;;9.30;9.00;;;9.70;99.90;;;;;;5126476;27;20261;-82
2022/12/24 03:37:51;;;;;;;8.70;8.50;;;9.60;99.90;;;;;;5126296;27;20345;-82
2022/12/24 03:40:19;;;;;;;8.90;8.60;;;9.50;99.90;;;;;;5126112;27;20221;-81
2022/12/24 03:42:47;;;;;;;8.70;8.50;;;9.40;99.90;;;;;;5125517;27;20255;-82
2022/12/24 03:45:15;;;;;;;8.67;8.47;;;9.40;99.90;;;;;;5124803;27;20245;-83
2022/12/24 03:47:43;;;;;;;8.70;8.50;;;9.40;99.90;;;;;;5124224;27;20236;-82
2022/12/24 03:50:12;;;;;;;8.60;8.40;;;9.40;99.90;;;;;;5127127;28;20217;-82
2022/12/24 03:52:40;;;;;;;8.80;8.60;;;9.40;99.90;;;;;;5126289;27;20240;-83
2022/12/24 03:55:09;;;;;;;8.80;8.57;;;9.40;99.90;;;;;;5125867;27;20225;-83
2022/12/24 03:57:36;;;;;;;8.97;8.67;;;9.40;99.90;;;;;;5125543;27;20224;-82
2022/12/24 04:00:05;;;;;;;8.60;8.40;;;9.40;99.90;;;;;;5124932;27;20216;-82
2022/12/24 04:02:33;;;;;;;8.80;8.60;;;9.40;99.90;;;;;;5126723;28;20235;-84
2022/12/24 04:05:00;;;;;;;8.60;8.40;;;9.40;99.90;;;;;;5127105;27;20319;-82
2022/12/24 04:07:32;;;;;;;8.70;8.50;;;9.40;99.90;;;;;;5124812;28;20271;-82
2022/12/24 04:10:00;;;;;;;9.20;8.90;;;9.40;99.90;;;;;;5129149;27;20276;-82
2022/12/24 04:12:28;;;;;;;9.20;8.90;;;9.40;99.90;;;;;;5141522;27;20213;-82
2022/12/24 04:14:56;;;;;;;9.13;8.83;;;9.40;99.90;;;;;;5141461;27;20224;-82
2022/12/24 04:17:23;;;;;;;9.40;9.10;;;9.40;99.90;;;;;;5140979;27;20225;-82
2022/12/24 04:19:51;;;;;;;9.50;9.20;;;9.40;99.90;;;;;;5134451;28;20235;-82
2022/12/24 04:22:19;;;;;;;9.47;9.17;;;9.40;99.90;;;;;;5132469;27;20228;-83
2022/12/24 04:24:48;;;;;;;9.40;9.10;;;9.40;99.90;;;;;;5132985;28;20233;-83
2022/12/24 04:27:18;;;;;;;9.30;9.00;;;9.40;99.90;;;;;;5130893;27;20245;-82
2022/12/24 04:29:46;;;;;;;9.53;9.23;;;9.40;99.90;;;;;;5134089;27;20212;-82
2022/12/24 04:32:15;;;;;;;9.40;9.10;;;9.40;99.90;;;;;;5135043;27;20231;-83
2022/12/24 04:34:42;;;;;;;9.60;9.30;;;9.40;99.90;;;;;;5138038;22;20232;-86
2022/12/24 04:37:09;;;;;;;9.57;9.27;;;9.40;99.90;;;;;;5103138;28;20347;-86
2022/12/24 04:39:37;;;;;;;9.70;9.40;;;9.40;99.90;;;;;;5102165;28;20324;-86
2022/12/24 04:42:08;;;;;;;9.67;9.37;;;9.50;99.90;;;;;;5103264;28;20229;-86
2022/12/24 04:44:35;;;;;;;9.60;9.30;;;9.50;99.90;;;;;;5102951;28;20321;-86
2022/12/24 04:47:03;;;;;;;9.73;9.43;;;9.50;99.90;;;;;;5103456;28;20248;-86
2022/12/24 04:49:33;;;;;;;9.60;9.30;;;9.50;99.90;;;;;;5102843;28;20285;-87
2022/12/24 04:52:02;;;;;;;9.57;9.27;;;9.40;99.90;;;;;;5105304;28;20264;-87
2022/12/24 04:54:32;;;;;;;9.57;9.27;;;9.50;99.90;;;;;;5114092;27;20269;-86
2022/12/24 04:57:01;;;;;;;9.57;9.27;;;9.50;99.90;;;;;;5103114;28;20233;-84
2022/12/24 05:02:17;;;;;;;9.40;9.10;;;9.50;99.90;;;;;;5102770;28;20221;-85
2022/12/24 05:04:47;;;;;;;9.37;9.07;;;9.50;99.90;;;;;;5104251;28;20260;-85
2022/12/24 05:07:16;;;;;;;9.70;9.40;;;9.50;99.90;;;;;;5102377;28;20336;-85
2022/12/24 05:09:45;;;;;;;9.70;9.40;;;9.40;99.90;;;;;;5102885;28;20237;-84
2022/12/24 05:12:15;;;;;;;9.50;9.20;;;9.40;99.90;;;;;;5102804;28;20309;-85
2022/12/24 05:14:57;;;;;;;9.43;9.13;;;9.50;99.90;;;;;;5102835;28;20264;-85
2022/12/24 05:17:24;;;;;;;9.30;9.00;;;9.50;99.90;;;;;;5103685;28;20301;-85
2022/12/24 05:19:52;;;;;;;9.20;8.90;;;9.50;99.90;;;;;;5103080;28;20316;-86
2022/12/24 05:27:59;;;;;;;9.20;8.90;;;9.40;99.90;;;;;;5103180;28;20225;-85
2022/12/24 05:33:14;;;;;;;8.80;8.60;;;9.40;99.90;;;;;;5101519;28;20224;-85
2022/12/24 05:35:42;;;;;;;9.07;8.77;;;9.40;99.90;;;;;;5103410;28;20328;-86
2022/12/24 05:38:14;;;;;;;9.20;8.90;;;9.50;99.90;;;;;;5102574;28;20221;-85
2022/12/24 05:40:44;;;;;;;9.20;8.90;;;9.40;99.90;;;;;;5103255;28;20267;-85
2022/12/24 05:43:15;;;;;;;8.70;8.50;;;9.50;99.90;;;;;;5104663;28;20240;-86
2022/12/24 05:45:44;;;;;;;8.73;8.53;;;9.50;99.90;;;;;;5104374;28;20229;-85
2022/12/24 05:48:11;;;;;;;8.87;8.57;;;9.50;99.90;;;;;;5108612;28;20248;-85
2022/12/24 05:50:42;;;;;;;9.00;8.70;;;9.50;99.90;;;;;;5106116;28;20268;-86
2022/12/24 05:53:10;;;;;;;8.63;8.43;;;9.50;99.90;;;;;;5105729;28;20238;-86
2022/12/24 05:55:41;;;;;;;8.77;8.50;;;9.50;99.90;;;;;;5105432;28;20256;-85
2022/12/24 05:58:09;;;;;;;9.07;8.77;;;9.50;99.90;;;;;;5103660;28;20236;-85
2022/12/24 06:00:39;;;;;;;8.73;8.53;;;9.40;99.90;;;;;;5104691;28;20218;-86
2022/12/24 06:06:04;;;;;;;8.83;8.57;;;9.40;99.90;;;;;;5103714;28;20333;-85
2022/12/24 06:08:35;;;;;;;8.67;8.47;;;9.40;99.90;;;;;;5104586;28;20324;-85
2022/12/24 06:11:08;;;;;;;8.60;8.40;;;9.40;99.90;;;;;;5103945;28;20610;-85
2022/12/24 06:13:41;;;;;;;8.70;8.50;;;9.40;99.90;;;;;;5105000;28;20233;-85
2022/12/24 06:16:13;;;;;;;8.60;8.40;;;9.40;99.90;;;;;;5104746;28;20230;-85
2022/12/24 06:21:27;;;;;;;8.50;8.30;;;9.40;99.90;;;;;;5103159;28;20217;-86
2022/12/24 06:23:56;;;;;;;8.30;8.10;;;9.40;99.90;;;;;;5104378;28;20293;-85
2022/12/24 06:26:26;;;;;;;8.37;8.17;;;9.40;99.90;;;;;;5104086;28;20293;-85
2022/12/24 06:28:55;;;;;;;8.50;8.30;;;9.40;99.90;;;;;;5104777;28;20218;-85
2022/12/24 06:31:26;;;;;;;8.60;8.40;;;9.40;99.90;;;;;;5104290;28;20268;-85
2022/12/24 06:36:40;;;;;;;8.60;8.40;;;9.40;99.90;;;;;;5103902;28;20234;-85
2022/12/24 06:39:11;;;;;;;8.60;8.40;;;9.50;99.90;;;;;;5105533;28;20255;-85
2022/12/24 06:41:40;;;;;;;8.57;8.37;;;9.50;99.90;;;;;;5111250;28;20225;-85
2022/12/24 06:44:08;;;;;;;8.37;8.17;;;9.50;99.90;;;;;;5111520;28;20264;-85
2022/12/24 06:46:39;;;;;;;8.40;8.20;;;9.50;99.90;;;;;;5112175;28;20292;-86
2022/12/24 06:49:10;;;;;;;8.60;8.40;;;9.50;99.90;;;;;;5110493;28;20247;-85
2022/12/24 06:51:49;;;;;;;8.53;8.33;;;9.50;99.90;;;;;;5108526;28;20236;-85
2022/12/24 06:54:17;;;;;;;8.70;8.50;;;9.50;99.90;;;;;;5108772;28;20263;-85
2022/12/24 06:56:44;;;;;;;8.43;8.23;;;9.60;99.90;;;;;;5108433;28;20233;-86
2022/12/24 07:01:53;;;;;;;8.50;8.30;;;9.50;99.90;;;;;;5104418;28;20220;-85
2022/12/24 07:04:34;;;;;;;8.50;8.30;;;9.50;99.90;;;;;;5107009;28;20292;-85
2022/12/24 07:07:03;;;;;;;8.27;8.07;;;9.50;99.90;;;;;;5107103;28;20233;-85
2022/12/24 07:09:31;;;;;;;8.47;8.27;;;9.50;99.90;;;;;;5107320;28;20229;-85
2022/12/24 07:12:02;;;;;;;8.50;8.30;;;9.50;99.90;;;;;;5106754;28;20234;-85
2022/12/24 07:14:29;;;;;;;8.30;8.10;;;9.50;99.90;;;;;;5107776;28;20252;-85
2022/12/24 07:16:58;;;;;;;8.40;8.20;;;9.50;99.90;;;;;;5108876;28;20256;-85
2022/12/24 07:19:30;;;;;;;8.37;8.17;;;9.40;99.90;;;;;;5107924;28;20235;-86
2022/12/24 07:21:57;;;;;;;8.40;8.20;;;9.50;99.90;;;;;;5107549;28;20286;-85
2022/12/24 07:24:28;;;;;;;8.27;8.07;;;9.50;99.90;;;;;;5107754;28;20242;-85
2022/12/24 07:26:56;;;;;;;8.27;8.07;;;9.50;99.90;;;;;;5107209;28;20263;-85
2022/12/24 07:29:26;;;;;;;8.17;7.97;;;9.50;99.90;;;;;;5107227;28;20272;-86
2022/12/24 07:31:57;;;;;;;8.23;8.03;;;9.50;99.90;;;;;;5108765;28;20229;-85
2022/12/24 07:34:26;;;;;;;8.30;8.10;;;9.60;99.90;;;;;;5115454;28;20241;-85
2022/12/24 07:36:56;;;;;;;8.40;8.20;;;9.60;99.90;;;;;;5109180;28;20230;-85
2022/12/24 07:39:23;;;;;;;8.30;8.10;;;9.60;99.90;;;;;;5119216;28;20213;-85
2022/12/24 07:41:54;;;;;;;8.30;8.10;;;9.60;99.90;;;;;;5119592;27;20236;-85
2022/12/24 07:44:23;;;;;;;8.23;8.03;;;9.60;99.90;;;;;;5107373;28;20271;-84
2022/12/24 07:46:54;;;;;;;8.40;8.20;;;9.70;99.90;;;;;;5106735;28;20247;-85
2022/12/24 07:54:56;;;;;;;8.30;8.10;;;9.60;99.90;;;;;;5111214;28;20328;-85
2022/12/24 07:57:26;;;;;;;8.40;8.20;;;9.60;99.90;;;;;;5108296;28;20230;-85
2022/12/24 07:59:55;;;;;;;8.37;8.17;;;9.60;99.90;;;;;;5107666;28;20285;-84
2022/12/24 08:02:24;;;;;;;8.10;7.90;;;9.60;99.90;;;;;;5106716;28;20280;-85
2022/12/24 08:04:54;;;;;;;8.13;7.93;;;9.60;99.90;;;;;;5106638;28;20246;-85
2022/12/24 08:07:36;;;;;;;8.17;7.97;;;9.60;99.90;;;;;;5106324;28;20297;-85
2022/12/24 08:10:03;;;;;;;8.23;8.03;;;9.60;99.90;;;;;;5106753;28;20252;-85
2022/12/24 08:12:40;;;;;;;8.10;7.90;;;9.60;99.90;;;;;;5111447;28;20237;-85
2022/12/24 08:15:10;;;;;;;8.10;7.90;;;9.70;99.90;;;;;;5117047;28;20241;-85
2022/12/24 08:17:39;;;;;;;8.43;8.23;;;9.80;99.90;;;;;;5108299;28;20249;-85
2022/12/24 08:20:08;;;;;;;8.30;8.10;;;9.80;99.90;;;;;;5107113;28;20266;-85
2022/12/24 08:22:40;;;;;;;8.57;8.37;;;9.90;99.90;;;;;;5106847;28;20213;-85
2022/12/24 08:25:09;;;;;;;8.50;8.30;;;9.90;99.90;;;;;;5105896;28;20252;-86
2022/12/24 08:27:37;;;;;;;8.40;8.20;;;9.90;99.90;;;;;;5104845;28;20237;-86
2022/12/24 08:30:06;;;;;;;8.60;8.40;;;9.90;99.90;;;;;;5105115;28;20236;-86
2022/12/24 08:32:35;;;;;;;8.60;8.40;;;10.00;99.90;;;;;;5104055;28;20220;-85
2022/12/24 08:35:06;;;;;;;8.73;8.53;;;10.00;99.90;;;;;;5103770;28;20260;-86
2022/12/24 08:37:34;;;;;;;8.40;8.20;;;10.00;99.90;;;;;;5105404;28;20237;-86
2022/12/24 08:40:33;;;;;;;8.57;8.37;;;10.00;99.90;;;;;;5104510;28;20233;-86
2022/12/24 08:43:02;;;;;;;8.20;8.00;;;10.00;99.90;;;;;;5106008;28;20240;-85
2022/12/24 08:48:16;;;;;;;8.43;8.23;;;10.00;99.90;;;;;;5105360;28;20237;-86
2022/12/24 08:50:45;;;;;;;8.60;8.40;;;10.00;99.90;;;;;;5103844;28;20244;-86
2022/12/24 08:53:15;;;;;;;8.40;8.20;;;10.00;99.90;;;;;;5103621;28;20233;-85
2022/12/24 08:55:47;;;;;;;8.63;8.43;;;10.00;99.90;;;;;;5102950;28;20233;-87
2022/12/24 08:58:15;;;;;;;8.60;8.40;;;10.00;99.90;;;;;;5104994;28;20285;-86
2022/12/24 09:00:44;;;;;;;8.80;8.60;;;10.10;99.90;;;;;;5114251;28;20331;-85
2022/12/24 09:03:23;;;;;;;8.70;8.50;;;10.10;99.90;;;;;;5109884;28;20248;-85
2022/12/24 09:05:52;;;;;;;8.70;8.50;;;10.10;99.90;;;;;;5104926;28;20272;-86
2022/12/24 09:08:20;;;;;;;8.70;8.50;;;10.10;99.90;;;;;;5104071;28;20225;-86
2022/12/24 09:13:36;;;;;;;8.70;8.50;;;10.20;99.90;;;;;;5102809;28;20252;-86
2022/12/24 09:16:07;;;;;;;8.50;8.30;;;10.20;99.90;;;;;;5103649;28;20233;-85
2022/12/24 09:18:36;;;;;;;8.43;8.23;;;10.20;99.90;;;;;;5103912;28;20237;-86
2022/12/24 09:21:07;;;;;;;8.53;8.33;;;10.20;99.90;;;;;;5105163;28;20229;-86
2022/12/24 09:23:38;;;;;;;8.77;8.57;;;10.20;99.90;;;;;;5104273;28;20233;-86
2022/12/24 09:26:12;;;;;;;8.60;8.40;;;10.20;99.90;;;;;;5103904;28;20236;-86
2022/12/24 09:28:42;;;;;;;8.80;8.60;;;10.30;99.90;;;;;;5105008;28;20279;-86
2022/12/24 09:31:12;;;;;;;8.70;8.50;;;10.30;99.90;;;;;;5116385;28;20252;-84
2022/12/24 09:33:41;;;;;;;8.70;8.50;;;10.30;99.90;;;;;;5117618;28;20420;-86
2022/12/24 09:36:10;;;;;;;8.53;8.33;;;10.40;99.90;;;;;;5113051;28;20236;-86
2022/12/24 09:38:40;;;;;;;8.77;8.57;;;10.40;99.90;;;;;;5104406;28;20233;-86
2022/12/24 09:41:29;;;;;;;8.60;8.40;;;10.50;99.90;;;;;;5105231;28;20240;-86
2022/12/24 09:44:16;;;;;;;9.00;8.70;;;10.50;99.90;;;;;;5105621;28;20231;-86
2022/12/24 09:46:48;;;;;;;8.50;8.30;;;10.50;99.90;;;;;;5105359;28;20412;-86
2022/12/24 09:49:23;;;;;;;8.80;8.60;;;10.60;99.90;;;;;;5117395;28;20263;-85
2022/12/24 09:51:55;;;;;;;8.80;8.60;;;10.60;99.90;;;;;;5107949;28;20228;-86
2022/12/24 09:54:31;;;;;;;9.20;8.90;;;10.50;99.90;;;;;;5105428;28;20260;-86
2022/12/24 09:57:19;;;;;;;8.73;8.53;;;10.60;99.90;;;;;;5104641;28;20233;-85
2022/12/24 09:59:47;;;;;;;8.87;8.60;;;10.50;99.90;;;;;;5104419;28;20225;-85
2022/12/24 10:02:18;;;;;;;8.77;8.57;;;10.50;99.90;;;;;;5103983;28;20316;-86
2022/12/24 10:04:48;;;;;;;8.80;8.60;;;10.50;99.90;;;;;;5105458;28;20241;-86
2022/12/24 10:07:34;;;;;;;8.67;8.47;;;10.60;99.90;;;;;;5105714;28;20237;-85
2022/12/24 10:10:24;;;;;;;8.70;8.50;;;10.50;99.90;;;;;;5107656;28;20229;-85
2022/12/24 10:13:00;;;;;;;8.70;8.50;;;10.60;99.90;;;;;;5104438;28;20256;-85
2022/12/24 10:15:38;;;;;;;8.93;8.70;;;10.60;99.90;;;;;;5104553;28;20243;-85
2022/12/24 10:18:27;;;;;;;9.10;8.80;;;10.60;99.90;;;;;;5105575;28;20256;-85
2022/12/24 10:23:53;;;;;;;8.63;8.43;;;10.70;99.90;;;;;;5118535;28;20232;-85
2022/12/24 10:26:28;;;;;;;8.50;8.30;;;10.80;99.90;;;;;;5111306;28;20221;-86
2022/12/24 10:29:08;;;;;;;8.80;8.60;;;10.90;99.90;;;;;;5108549;28;20295;-86
2022/12/24 10:31:45;;;;;;;8.70;8.50;;;11.00;99.90;;;;;;5107200;28;20248;-86
2022/12/24 10:34:18;;;;;;;9.10;8.80;;;11.10;99.90;;;;;;5130800;22;20242;-83
2022/12/24 10:36:46;;;;;;;8.87;8.63;;;11.20;99.90;;;;;;5130501;28;20235;-82
2022/12/24 10:39:20;;;;;;;9.10;8.80;;;11.30;99.90;;;;;;5139219;28;20244;-82
2022/12/24 10:41:50;;;;;;;9.10;8.80;;;11.30;99.90;;;;;;5137060;27;20221;-83
2022/12/24 10:44:24;;;;;;;8.83;8.60;;;11.40;99.90;;;;;;5131659;27;20232;-83
2022/12/24 10:46:52;;;;;;;8.90;8.70;;;11.40;99.90;;;;;;5131364;28;20213;-83
2022/12/24 10:49:30;;;;;;;8.70;8.50;;;11.40;99.90;;;;;;5131718;27;20280;-83
2022/12/24 10:52:04;;;;;;;9.10;8.80;;;11.40;99.90;;;;;;5139831;28;20229;-82
2022/12/24 10:54:38;;;;;;;8.93;8.70;;;11.50;99.90;;;;;;5138586;27;20239;-82
2022/12/24 10:57:24;;;;;;;9.20;8.90;;;11.50;99.90;;;;;;5133108;28;20276;-82
2022/12/24 11:00:11;;;;;;;9.23;8.93;;;11.50;99.90;;;;;;5131317;27;20252;-82
2022/12/24 11:02:40;;;;;;;9.30;9.00;;;11.50;99.90;;;;;;5131004;27;20229;-82
2022/12/24 11:05:29;;;;;;;8.93;8.63;;;11.50;99.90;;;;;;5129650;27;20229;-83
2022/12/24 11:08:01;;;;;;;9.27;8.97;;;11.50;99.90;;;;;;5111434;28;20290;-83
2022/12/24 11:10:29;;;;;;;9.30;9.00;;;11.50;99.90;;;;;;5129789;27;21062;-83
2022/12/24 11:12:57;;;;;;;9.20;8.90;;;11.50;99.90;;;;;;5131032;27;20233;-83
2022/12/24 11:15:31;;;;;;;9.50;9.20;;;11.60;99.90;;;;;;5128804;28;20225;-83
2022/12/24 11:18:02;;;;;;;9.13;8.83;;;11.50;99.90;;;;;;5129225;27;20239;-83
2022/12/24 11:20:33;;;;;;;9.60;9.30;;;11.60;99.90;;;;;;5128995;28;20235;-82
2022/12/24 11:23:02;;;;;;;9.10;8.80;;;11.60;99.90;;;;;;5129740;27;20229;-83
2022/12/24 11:25:32;;;;;;;9.20;8.90;;;11.80;99.90;;;;;;5130687;27;20232;-83
2022/12/24 11:28:19;;;;;;;9.63;9.33;;;12.10;99.90;;;;;;5129545;27;20224;-82
2022/12/24 11:31:06;;;;;;;9.83;9.53;;;12.50;99.90;;;;;;5128384;27;20328;-83
2022/12/24 11:33:47;;;;;;;9.20;8.90;;;12.60;99.90;;;;;;5128762;28;20255;-83
2022/12/24 11:36:17;;;;;;;9.60;9.30;;;12.60;99.90;;;;;;5128686;28;20240;-83
2022/12/24 11:38:54;;;;;;;9.50;9.20;;;12.60;99.90;;;;;;5128243;27;20320;-82
2022/12/24 11:41:22;;;;;;;9.03;8.73;;;12.60;99.90;;;;;;5129445;28;20331;-82
2022/12/24 11:43:57;;;;;;;9.50;9.20;;;12.40;99.90;;;;;;5128750;28;20240;-82
2022/12/24 11:46:40;;;;;;;9.53;9.23;;;12.40;99.90;;;;;;5131373;28;20224;-82
2022/12/24 11:49:25;;;;;;;9.00;8.80;;;12.30;99.90;;;;;;5134925;27;20262;-83
2022/12/24 11:52:21;;;;;;;9.40;9.10;;;12.30;99.90;;;;;;5133377;28;20228;-83
2022/12/24 11:55:15;;;;;;;9.30;9.00;;;12.30;99.90;;;;;;5129977;27;20241;-82
2022/12/24 11:57:59;;;;;;;9.40;9.10;;;12.30;99.90;;;;;;5129148;28;20232;-83
2022/12/24 12:00:27;;;;;;;9.50;9.20;;;12.40;99.90;;;;;;5128277;27;20224;-82
2022/12/24 12:03:00;;;;;;;9.00;8.80;;;12.40;99.90;;;;;;5128083;27;20229;-83
2022/12/24 12:05:33;;;;;;;8.80;8.60;;;12.40;99.90;;;;;;5128163;27;20313;-83
2022/12/24 12:08:13;;;;;;;9.20;8.90;;;12.40;99.90;;;;;;5126712;27;20243;-83
2022/12/24 12:10:43;;;;;;;9.27;8.97;;;12.30;99.90;;;;;;5127178;28;20224;-83
2022/12/24 12:13:15;;;;;;;9.17;8.87;;;12.30;99.90;;;;;;5133151;27;20220;-82
2022/12/24 12:15:49;;;;;;;9.30;9.00;;;12.30;99.90;;;;;;5140231;27;20217;-83
2022/12/24 12:18:23;;;;;;;8.90;8.70;;;12.40;99.90;;;;;;5140630;27;20251;-83
2022/12/24 12:20:58;;;;;;;8.87;8.67;;;12.40;99.90;;;;;;5134182;27;20247;-83
2022/12/24 12:23:33;;;;;;;8.73;8.53;;;12.40;99.90;;;;;;5125016;27;20278;-83
2022/12/24 12:26:06;;;;;;;8.77;8.57;;;12.40;99.90;;;;;;5124065;28;20232;-83
2022/12/24 12:28:41;;;;;;;9.20;8.90;;;12.30;99.90;;;;;;5122489;27;20241;-82
2022/12/24 12:31:18;;;;;;;8.90;8.70;;;12.30;99.90;;;;;;5123469;27;20224;-83
2022/12/24 12:33:53;;;;;;;8.87;8.67;;;12.30;99.90;;;;;;5125051;28;20228;-83
2022/12/24 12:36:28;;;;;;;9.10;8.80;;;12.20;99.90;;;;;;5124398;27;20256;-83
2022/12/24 12:38:56;;;;;;;9.20;8.90;;;12.30;99.90;;;;;;5124814;27;20224;-83
2022/12/24 12:41:44;;;;;;;8.90;8.70;;;12.30;99.90;;;;;;5123769;28;20315;-83
2022/12/24 12:44:42;;;;;;;9.07;8.77;;;12.40;99.90;;;;;;5124351;27;20233;-82
2022/12/24 12:47:27;;;;;;;9.27;8.97;;;12.40;99.90;;;;;;5124076;28;20327;-83
2022/12/24 12:50:06;;;;;;;9.23;8.93;;;12.50;99.90;;;;;;5124307;27;20280;-83
2022/12/24 12:52:52;;;;;;;9.03;8.73;;;12.60;99.90;;;;;;5124187;28;20224;-84
2022/12/24 12:55:33;;;;;;;9.40;9.10;;;12.60;99.90;;;;;;5130248;27;20228;-82
2022/12/24 12:58:08;;;;;;;9.40;9.10;;;12.60;99.90;;;;;;5136812;27;20219;-83
2022/12/24 13:00:39;;;;;;;9.20;8.90;;;12.40;99.90;;;;;;5129830;27;20251;-83
2022/12/24 13:03:45;;;;;;;9.10;8.80;;;12.30;99.90;;;;;;5128388;27;20220;-83
2022/12/24 13:06:58;;;;;;;9.20;8.90;;;12.30;99.90;;;;;;5124153;28;20233;-83
2022/12/24 13:10:23;;;;;;;9.03;8.73;;;12.30;99.90;;;;;;5125975;28;20244;-83
2022/12/24 13:13:27;;;;;;;9.30;9.00;;;12.30;99.90;;;;;;5126780;28;20248;-83
2022/12/24 13:16:26;;;;;;;9.33;9.03;;;12.30;99.90;;;;;;5126599;28;20243;-83
2022/12/24 13:19:14;;;;;;;9.33;9.03;;;12.40;99.90;;;;;;5126578;28;20228;-83
2022/12/24 13:21:47;;;;;;;9.33;9.03;;;12.40;99.90;;;;;;5125921;27;20233;-83
2022/12/24 13:24:19;;;;;;;9.23;8.93;;;12.50;99.90;;;;;;5125214;28;20282;-83
2022/12/24 13:27:02;;;;;;;8.80;8.60;;;12.60;99.90;;;;;;5125598;28;20232;-83
2022/12/24 13:29:38;;;;;;;9.40;9.10;;;12.70;99.90;;;;;;5125897;27;20243;-83
2022/12/24 13:32:51;;;;;;;8.97;8.70;;;12.80;99.90;;;;;;5125231;28;20259;-84
2022/12/24 13:35:39;;;;;;;9.20;8.90;;;12.60;99.90;;;;;;5124057;27;20220;-84
2022/12/24 13:38:35;;;;;;;9.20;8.90;;;12.60;99.90;;;;;;5125613;27;20263;-84
2022/12/24 13:41:52;;;;;;;9.33;9.03;;;12.60;99.90;;;;;;5124527;27;20327;-84
2022/12/24 13:44:33;;;;;;;9.30;9.00;;;12.60;99.90;;;;;;5061251;28;20285;-84
2022/12/24 13:47:17;;;;;;;9.00;8.70;;;12.40;99.90;;;;;;5114817;28;20319;-84
2022/12/24 13:49:46;;;;;;;9.07;8.77;;;12.40;99.90;;;;;;5123312;28;20244;-84
2022/12/24 13:52:25;;;;;;;8.80;8.60;;;12.30;99.90;;;;;;5123632;28;20236;-84
2022/12/24 13:55:15;;;;;;;9.20;8.90;;;12.30;99.90;;;;;;5122527;27;20266;-84
2022/12/24 13:57:52;;;;;;;9.30;9.00;;;12.20;99.90;;;;;;5124004;28;20213;-84
2022/12/24 14:00:40;;;;;;;9.47;9.17;;;12.20;99.90;;;;;;5124714;28;20281;-84
2022/12/24 14:03:31;;;;;;;9.50;9.20;;;12.10;99.90;;;;;;5123954;28;20236;-84
2022/12/24 14:06:02;;;;;;;9.20;8.90;;;12.10;99.90;;;;;;5124641;28;20236;-84